Terminal Aerodrome Forecast
Issued by NWS Nashville, TN

Home | Current Version | Previous Version | Text Only | Print | Product List | Glossary On
Versions: 1 2 3 4 5 6 7 8 9 10 11 12 13 14 15 16 17 18 19 20 21 22 23 24 25 26 27 28 29 30 31 32 33 34 35 36 37 38 39 40 41 42 43 44
000
FTUS44 KOHX 232151 AAC
TAFBNA
TAF AMD
KBNA 232151Z 2322/2418 02012KT 6SM -RA BR SCT008 OVC012
      TEMPO 2322/2402 4SM -RA BR OVC008
     FM240200 36012KT 6SM -SHRA BKN007 OVC012
     FM240900 36008KT 4SM BR OVC006=

USA.gov is the U.S. government's official web portal to all federal, state and local government web resources and services.